sensor_id;sensor_type;location;lat;lon;timestamp;pressure;altitude;pressure_sealevel;temperature;humidity
17373;BME280;8803;48.116;11.590;2023-10-09T00:01:14;96266.18;;;18.40;100.00
17373;BME280;8803;48.116;11.590;2023-10-09T00:03:20;96268.21;;;18.34;100.00
17373;BME280;8803;48.116;11.590;2023-10-09T00:05:26;96264.31;;;18.32;100.00
17373;BME280;8803;48.116;11.590;2023-10-09T00:07:33;96264.98;;;18.30;100.00
17373;BME280;8803;48.116;11.590;2023-10-09T00:09:38;96271.73;;;18.30;100.00
17373;BME280;8803;48.116;11.590;2023-10-09T00:11:49;96268.89;;;18.28;100.00
17373;BME280;8803;48.116;11.590;2023-10-09T00:13:56;96272.41;;;18.28;100.00
17373;BME280;8803;48.116;11.590;2023-10-09T00:16:04;96261.30;;;18.27;100.00
17373;BME280;8803;48.116;11.590;2023-10-09T00:18:14;96260.10;;;18.26;100.00
17373;BME280;8803;48.116;11.590;2023-10-09T00:20:19;96258.08;;;18.24;100.00
17373;BME280;8803;48.116;11.590;2023-10-09T00:22:26;96255.56;;;18.22;100.00
17373;BME280;8803;48.116;11.590;2023-10-09T00:24:34;96253.72;;;18.23;100.00
17373;BME280;8803;48.116;11.590;2023-10-09T00:28:51;96233.67;;;18.25;100.00
17373;BME280;8803;48.116;11.590;2023-10-09T00:30:56;96236.37;;;18.21;100.00
17373;BME280;8803;48.116;11.590;2023-10-09T00:35:13;96221.20;;;18.24;100.00
17373;BME280;8803;48.116;11.590;2023-10-09T00:39:50;96213.28;;;18.23;100.00
17373;BME280;8803;48.116;11.590;2023-10-09T00:41:57;96211.09;;;18.18;100.00
17373;BME280;8803;48.116;11.590;2023-10-09T00:44:04;96214.82;;;18.17;100.00
17373;BME280;8803;48.116;11.590;2023-10-09T00:46:10;96212.63;;;18.17;100.00
17373;BME280;8803;48.116;11.590;2023-10-09T00:48:17;96207.38;;;18.15;100.00
17373;BME280;8803;48.116;11.590;2023-10-09T00:52:38;96202.52;;;18.19;100.00
17373;BME280;8803;48.116;11.590;2023-10-09T00:54:45;96200.33;;;18.14;100.00
17373;BME280;8803;48.116;11.590;2023-10-09T00:56:52;96200.33;;;18.14;100.00
17373;BME280;8803;48.116;11.590;2023-10-09T01:01:12;96192.23;;;18.18;100.00
17373;BME280;8803;48.116;11.590;2023-10-09T01:05:33;96183.30;;;18.18;100.00
17373;BME280;8803;48.116;11.590;2023-10-09T01:07:41;96180.11;;;18.14;100.00
17373;BME280;8803;48.116;11.590;2023-10-09T01:09:48;96185.50;;;18.14;100.00
17373;BME280;8803;48.116;11.590;2023-10-09T01:11:54;96182.80;;;18.14;100.00
17373;BME280;8803;48.116;11.590;2023-10-09T01:14:07;96181.45;;;18.14;100.00
17373;BME280;8803;48.116;11.590;2023-10-09T01:16:15;96177.06;;;18.13;100.00
17373;BME280;8803;48.116;11.590;2023-10-09T01:18:20;96185.50;;;18.14;100.00
17373;BME280;8803;48.116;11.590;2023-10-09T01:20:27;96181.45;;;18.14;100.00
17373;BME280;8803;48.116;11.590;2023-10-09T01:22:33;96177.59;;;18.12;100.00
17373;BME280;8803;48.116;11.590;2023-10-09T01:24:38;96175.72;;;18.13;100.00
17373;BME280;8803;48.116;11.590;2023-10-09T01:26:43;96172.52;;;18.13;100.00
17373;BME280;8803;48.116;11.590;2023-10-09T01:28:52;96168.48;;;18.13;100.00
17373;BME280;8803;48.116;11.590;2023-10-09T01:31:00;96166.14;;;18.14;100.00
17373;BME280;8803;48.116;11.590;2023-10-09T01:33:05;96165.60;;;18.15;100.00
17373;BME280;8803;48.116;11.590;2023-10-09T01:35:13;96161.06;;;18.15;100.00
17373;BME280;8803;48.116;11.590;2023-10-09T01:37:21;96158.72;;;18.17;100.00
17373;BME280;8803;48.116;11.590;2023-10-09T01:39:28;96158.72;;;18.17;100.00
17373;BME280;8803;48.116;11.590;2023-10-09T01:43:45;96153.48;;;18.23;100.00
17373;BME280;8803;48.116;11.590;2023-10-09T01:45:51;96162.93;;;18.19;100.00
17373;BME280;8803;48.116;11.590;2023-10-09T01:50:10;96159.19;;;18.24;100.00
17373;BME280;8803;48.116;11.590;2023-10-09T01:52:17;96157.67;;;18.22;100.00
17373;BME280;8803;48.116;11.590;2023-10-09T01:54:23;96154.48;;;18.22;100.00
17373;BME280;8803;48.116;11.590;2023-10-09T01:56:38;96157.17;;;18.22;100.00
17373;BME280;8803;48.116;11.590;2023-10-09T01:58:45;96146.40;;;18.22;100.00
17373;BME280;8803;48.116;11.590;2023-10-09T02:00:50;96153.13;;;18.22;100.00
17373;BME280;8803;48.116;11.590;2023-10-09T02:02:58;96147.42;;;18.21;100.00
17373;BME280;8803;48.116;11.590;2023-10-09T02:05:08;96144.73;;;18.21;100.00
17373;BME280;8803;48.116;11.590;2023-10-09T02:07:15;96145.23;;;18.21;100.00
17373;BME280;8803;48.116;11.590;2023-10-09T02:09:21;96137.33;;;18.19;100.00
17373;BME280;8803;48.116;11.590;2023-10-09T02:13:40;96128.87;;;18.22;100.00
17373;BME280;8803;48.116;11.590;2023-10-09T02:15:45;96133.43;;;18.18;100.00
17373;BME280;8803;48.116;11.590;2023-10-09T02:17:58;96129.07;;;18.17;100.00
17373;BME280;8803;48.116;11.590;2023-10-09T02:20:06;96130.41;;;18.17;100.00
17373;BME280;8803;48.116;11.590;2023-10-09T02:22:15;96130.06;;;18.15;100.00
17373;BME280;8803;48.116;11.590;2023-10-09T02:24:20;96121.13;;;18.15;100.00
17373;BME280;8803;48.116;11.590;2023-10-09T02:26:32;96123.51;;;18.14;100.00
17373;BME280;8803;48.116;11.590;2023-10-09T02:28:40;96124.36;;;18.14;100.00
17373;BME280;8803;48.116;11.590;2023-10-09T02:30:47;96119.47;;;18.14;100.00
17373;BME280;8803;48.116;11.590;2023-10-09T02:35:07;96109.70;;;18.17;100.00
17373;BME280;8803;48.116;11.590;2023-10-09T02:37:14;96116.27;;;18.14;100.00
17373;BME280;8803;48.116;11.590;2023-10-09T02:41:33;96105.48;;;18.19;100.00
17373;BME280;8803;48.116;11.590;2023-10-09T02:43:40;96113.23;;;18.13;100.00
17373;BME280;8803;48.116;11.590;2023-10-09T02:45:46;96110.03;;;18.14;100.00
17373;BME280;8803;48.116;11.590;2023-10-09T02:47:53;96108.34;;;18.13;100.00
17373;BME280;8803;48.116;11.590;2023-10-09T02:49:58;96102.27;;;18.15;100.00
17373;BME280;8803;48.116;11.590;2023-10-09T02:52:06;96103.61;;;18.15;100.00
17373;BME280;8803;48.116;11.590;2023-10-09T02:54:10;96105.49;;;18.14;100.00
17373;BME280;8803;48.116;11.590;2023-10-09T02:56:32;96103.61;;;18.15;100.00
17373;BME280;8803;48.116;11.590;2023-10-09T02:58:42;96093.86;;;18.14;100.00
17373;BME280;8803;48.116;11.590;2023-10-09T03:00:47;96093.19;;;18.16;100.00
17373;BME280;8803;48.116;11.590;2023-10-09T03:05:05;96091.64;;;18.22;100.00
17373;BME280;8803;48.116;11.590;2023-10-09T03:07:11;96094.20;;;18.19;100.00
17373;BME280;8803;48.116;11.590;2023-10-09T03:09:17;96092.84;;;18.19;100.00
17373;BME280;8803;48.116;11.590;2023-10-09T03:11:22;96095.20;;;18.18;100.00
17373;BME280;8803;48.116;11.590;2023-10-09T03:13:28;96093.67;;;18.20;100.00
17373;BME280;8803;48.116;11.590;2023-10-09T03:17:46;96082.05;;;18.23;100.00
17373;BME280;8803;48.116;11.590;2023-10-09T03:19:51;96090.66;;;18.19;100.00
17373;BME280;8803;48.116;11.590;2023-10-09T03:21:56;96085.77;;;18.18;100.00
17373;BME280;8803;48.116;11.590;2023-10-09T03:26:14;96077.00;;;18.20;100.00
17373;BME280;8803;48.116;11.590;2023-10-09T03:28:20;96076.16;;;18.15;100.00
17373;BME280;8803;48.116;11.590;2023-10-09T03:30:24;96076.66;;;18.15;100.00
17373;BME280;8803;48.116;11.590;2023-10-09T03:32:29;96072.30;;;18.14;100.00
17373;BME280;8803;48.116;11.590;2023-10-09T03:34:33;96067.09;;;18.12;100.00
17373;BME280;8803;48.116;11.590;2023-10-09T03:36:37;96067.59;;;18.12;100.00
17373;BME280;8803;48.116;11.590;2023-10-09T03:38:42;96063.73;;;18.10;100.00
17373;BME280;8803;48.116;11.590;2023-10-09T03:40:47;96066.93;;;18.10;100.00
17373;BME280;8803;48.116;11.590;2023-10-09T03:42:54;96060.02;;;18.07;100.00
17373;BME280;8803;48.116;11.590;2023-10-09T03:44:58;96066.44;;;18.06;100.00
17373;BME280;8803;48.116;11.590;2023-10-09T03:47:02;96057.16;;;18.05;100.00
17373;BME280;8803;48.116;11.590;2023-10-09T03:49:08;96059.19;;;18.03;100.00
17373;BME280;8803;48.116;11.590;2023-10-09T03:51:14;96071.81;;;18.02;100.00
17373;BME280;8803;48.116;11.590;2023-10-09T03:53:20;96065.77;;;18.00;100.00
17373;BME280;8803;48.116;11.590;2023-10-09T03:55:25;96066.29;;;18.00;100.00
17373;BME280;8803;48.116;11.590;2023-10-09T03:59:44;96061.03;;;18.02;100.00
17373;BME280;8803;48.116;11.590;2023-10-09T04:01:50;96062.93;;;17.98;100.00
17373;BME280;8803;48.116;11.590;2023-10-09T04:03:56;96066.79;;;17.99;100.00
17373;BME280;8803;48.116;11.590;2023-10-09T04:06:02;96055.66;;;17.98;100.00
17373;BME280;8803;48.116;11.590;2023-10-09T04:08:09;96060.05;;;17.99;100.00
17373;BME280;8803;48.116;11.590;2023-10-09T04:10:19;96062.25;;;18.00;100.00
17373;BME280;8803;48.116;11.590;2023-10-09T04:12:41;96066.29;;;18.00;100.00
17373;BME280;8803;48.116;11.590;2023-10-09T04:14:46;96063.75;;;17.98;100.00
17373;BME280;8803;48.116;11.590;2023-10-09T04:16:56;96068.64;;;17.99;100.00
17373;BME280;8803;48.116;11.590;2023-10-09T04:19:02;96061.90;;;17.99;100.00
17373;BME280;8803;48.116;11.590;2023-10-09T04:23:27;96063.91;;;18.01;100.00
17373;BME280;8803;48.116;11.590;2023-10-09T04:25:38;96067.13;;;17.96;100.00
17373;BME280;8803;48.116;11.590;2023-10-09T04:27:47;96059.56;;;17.96;100.00
17373;BME280;8803;48.116;11.590;2023-10-09T04:29:53;96053.83;;;17.95;100.00
17373;BME280;8803;48.116;11.590;2023-10-09T04:34:12;96060.23;;;17.98;100.00
17373;BME280;8803;48.116;11.590;2023-10-09T04:38:41;96056.52;;;17.95;100.00
17373;BME280;8803;48.116;11.590;2023-10-09T04:40:48;96058.38;;;17.90;100.00
17373;BME280;8803;48.116;11.590;2023-10-09T04:42:54;96058.38;;;17.90;100.00
17373;BME280;8803;48.116;11.590;2023-10-09T04:45:02;96058.38;;;17.90;100.00
17373;BME280;8803;48.116;11.590;2023-10-09T04:49:52;96051.64;;;17.90;100.00
17373;BME280;8803;48.116;11.590;2023-10-09T04:52:01;96054.85;;;17.86;100.00
17373;BME280;8803;48.116;11.590;2023-10-09T04:54:24;96052.34;;;17.84;100.00
17373;BME280;8803;48.116;11.590;2023-10-09T04:56:38;96055.53;;;17.84;100.00
17373;BME280;8803;48.116;11.590;2023-10-09T04:58:44;96058.23;;;17.84;100.00
17373;BME280;8803;48.116;11.590;2023-10-09T05:00:50;96060.11;;;17.83;100.00
17373;BME280;8803;48.116;11.590;2023-10-09T05:03:07;96059.25;;;17.83;100.00
17373;BME280;8803;48.116;11.590;2023-10-09T05:05:15;96064.14;;;17.83;100.00
17373;BME280;8803;48.116;11.590;2023-10-09T05:07:21;96057.55;;;17.82;100.00
17373;BME280;8803;48.116;11.590;2023-10-09T05:09:31;96056.56;;;17.83;100.00
17373;BME280;8803;48.116;11.590;2023-10-09T05:13:50;96057.55;;;17.86;100.00
17373;BME280;8803;48.116;11.590;2023-10-09T05:15:56;96057.55;;;17.82;100.00
17373;BME280;8803;48.116;11.590;2023-10-09T05:20:15;96058.76;;;17.83;100.00
17373;BME280;8803;48.116;11.590;2023-10-09T05:25:07;96064.64;;;17.83;100.00
17373;BME280;8803;48.116;11.590;2023-10-09T05:29:34;96072.05;;;17.81;100.00
17373;BME280;8803;48.116;11.590;2023-10-09T05:31:40;96068.52;;;17.76;100.00
17373;BME280;8803;48.116;11.590;2023-10-09T05:34:00;96071.40;;;17.75;100.00
17373;BME280;8803;48.116;11.590;2023-10-09T05:36:06;96074.91;;;17.75;100.00
17373;BME280;8803;48.116;11.590;2023-10-09T05:38:36;96080.83;;;17.75;100.00
17373;BME280;8803;48.116;11.590;2023-10-09T05:40:42;96081.99;;;17.76;100.00
17373;BME280;8803;48.116;11.590;2023-10-09T05:42:49;96085.18;;;17.76;100.00
17373;BME280;8803;48.116;11.590;2023-10-09T05:45:08;96092.27;;;17.77;100.00
17373;BME280;8803;48.116;11.590;2023-10-09T05:47:30;96094.78;;;17.78;100.00
17373;BME280;8803;48.116;11.590;2023-10-09T05:49:35;96095.09;;;17.79;100.00
17373;BME280;8803;48.116;11.590;2023-10-09T05:51:49;96092.59;;;17.78;100.00
17373;BME280;8803;48.116;11.590;2023-10-09T05:53:58;96091.06;;;17.79;100.00
17373;BME280;8803;48.116;11.590;2023-10-09T05:56:17;96093.25;;;17.80;100.00
17373;BME280;8803;48.116;11.590;2023-10-09T06:00:52;96084.48;;;17.86;100.00
17373;BME280;8803;48.116;11.590;2023-10-09T06:03:27;96083.50;;;17.83;100.00
17373;BME280;8803;48.116;11.590;2023-10-09T06:07:47;96089.05;;;17.89;100.00
17373;BME280;8803;48.116;11.590;2023-10-09T06:09:55;96094.27;;;17.87;100.00
17373;BME280;8803;48.116;11.590;2023-10-09T06:11:59;96094.44;;;17.89;100.00
17373;BME280;8803;48.116;11.590;2023-10-09T06:16:35;96088.84;;;17.99;100.00
17373;BME280;8803;48.116;11.590;2023-10-09T06:20:57;96098.59;;;18.12;100.00
17373;BME280;8803;48.116;11.590;2023-10-09T06:25:27;96105.44;;;18.31;100.00
17373;BME280;8803;48.116;11.590;2023-10-09T06:27:36;96098.36;;;18.34;100.00
17373;BME280;8803;48.116;11.590;2023-10-09T06:30:00;96104.41;;;18.40;100.00
17373;BME280;8803;48.116;11.590;2023-10-09T06:34:32;96097.12;;;18.56;100.00
17373;BME280;8803;48.116;11.590;2023-10-09T06:36:38;96102.34;;;18.54;100.00
17373;BME280;8803;48.116;11.590;2023-10-09T06:38:44;96103.02;;;18.56;100.00
17373;BME280;8803;48.116;11.590;2023-10-09T06:40:57;96103.49;;;18.59;100.00
17373;BME280;8803;48.116;11.590;2023-10-09T06:43:20;96102.66;;;18.63;100.00
17373;BME280;8803;48.116;11.590;2023-10-09T06:45:30;96102.82;;;18.65;100.00
17373;BME280;8803;48.116;11.590;2023-10-09T06:47:39;96105.49;;;18.69;100.00
17373;BME280;8803;48.116;11.590;2023-10-09T06:49:45;96105.63;;;18.72;100.00
17373;BME280;8803;48.116;11.590;2023-10-09T06:51:53;96107.30;;;18.77;100.00
17373;BME280;8803;48.116;11.590;2023-10-09T06:53:59;96108.63;;;18.81;100.00
17373;BME280;8803;48.116;11.590;2023-10-09T06:56:05;96103.70;;;18.84;100.00
17373;BME280;8803;48.116;11.590;2023-10-09T06:58:11;96109.61;;;18.88;100.00
17373;BME280;8803;48.116;11.590;2023-10-09T07:00:18;96111.78;;;18.93;100.00
17373;BME280;8803;48.116;11.590;2023-10-09T07:02:57;96108.39;;;18.95;100.00
17373;BME280;8803;48.116;11.590;2023-10-09T07:05:09;96110.22;;;18.98;100.00
17373;BME280;8803;48.116;11.590;2023-10-09T07:09:29;96110.33;;;19.09;98.29
17373;BME280;8803;48.116;11.590;2023-10-09T07:11:47;96111.86;;;19.07;98.00
17373;BME280;8803;48.116;11.590;2023-10-09T07:14:03;96110.48;;;19.11;99.27
17373;BME280;8803;48.116;11.590;2023-10-09T07:16:09;96112.81;;;19.14;96.09
17373;BME280;8803;48.116;11.590;2023-10-09T07:18:30;96112.28;;;19.19;97.25
17373;BME280;8803;48.116;11.590;2023-10-09T07:20:36;96122.89;;;19.24;98.24
17373;BME280;8803;48.116;11.590;2023-10-09T07:22:41;96123.52;;;19.30;99.23
17373;BME280;8803;48.116;11.590;2023-10-09T07:24:59;96123.84;;;19.35;99.43
17373;BME280;8803;48.116;11.590;2023-10-09T07:27:06;96121.11;;;19.39;94.20
17373;BME280;8803;48.116;11.590;2023-10-09T07:29:12;96127.16;;;19.45;93.98
17373;BME280;8803;48.116;11.590;2023-10-09T07:31:24;96125.59;;;19.51;94.87
17373;BME280;8803;48.116;11.590;2023-10-09T07:33:30;96127.25;;;19.56;95.01
17373;BME280;8803;48.116;11.590;2023-10-09T07:37:51;96128.81;;;19.69;95.49
17373;BME280;8803;48.116;11.590;2023-10-09T07:39:55;96132.17;;;19.71;95.13
17373;BME280;8803;48.116;11.590;2023-10-09T07:44:12;96125.61;;;19.88;94.12
17373;BME280;8803;48.116;11.590;2023-10-09T07:48:36;96127.09;;;20.09;88.76
17373;BME280;8803;48.116;11.590;2023-10-09T07:50:44;96122.64;;;20.16;90.45
17373;BME280;8803;48.116;11.590;2023-10-09T07:52:52;96127.10;;;20.28;90.87
17373;BME280;8803;48.116;11.590;2023-10-09T07:54:58;96129.16;;;20.40;91.20
17373;BME280;8803;48.116;11.590;2023-10-09T07:57:12;96123.30;;;20.52;91.74
17373;BME280;8803;48.116;11.590;2023-10-09T07:59:19;96119.63;;;20.63;92.27
17373;BME280;8803;48.116;11.590;2023-10-09T08:01:25;96117.77;;;20.74;93.02
17373;BME280;8803;48.116;11.590;2023-10-09T08:03:38;96124.77;;;20.83;92.44
17373;BME280;8803;48.116;11.590;2023-10-09T08:05:44;96122.80;;;20.92;91.12
17373;BME280;8803;48.116;11.590;2023-10-09T08:07:48;96122.48;;;21.01;91.38
17373;BME280;8803;48.116;11.590;2023-10-09T08:10:02;96135.13;;;21.09;91.69
17373;BME280;8803;48.116;11.590;2023-10-09T08:14:41;96130.90;;;21.32;92.00
17373;BME280;8803;48.116;11.590;2023-10-09T08:16:50;96133.24;;;21.35;90.86
17373;BME280;8803;48.116;11.590;2023-10-09T08:18:56;96134.84;;;21.40;89.14
17373;BME280;8803;48.116;11.590;2023-10-09T08:21:03;96139.38;;;21.43;88.59
17373;BME280;8803;48.116;11.590;2023-10-09T08:23:28;96149.61;;;21.48;88.14
17373;BME280;8803;48.116;11.590;2023-10-09T08:25:34;96145.48;;;21.52;87.67
17373;BME280;8803;48.116;11.590;2023-10-09T08:27:40;96141.05;;;21.55;86.18
17373;BME280;8803;48.116;11.590;2023-10-09T08:29:53;96143.39;;;21.58;85.75
17373;BME280;8803;48.116;11.590;2023-10-09T08:32:01;96144.78;;;21.64;84.46
17373;BME280;8803;48.116;11.590;2023-10-09T08:34:08;96144.14;;;21.73;84.13
17373;BME280;8803;48.116;11.590;2023-10-09T08:36:14;96148.92;;;21.81;83.79
17373;BME280;8803;48.116;11.590;2023-10-09T08:38:20;96140.38;;;21.88;82.62
17373;BME280;8803;48.116;11.590;2023-10-09T08:40:32;96143.45;;;21.96;81.96
17373;BME280;8803;48.116;11.590;2023-10-09T08:42:38;96139.14;;;22.02;79.48
17373;BME280;8803;48.116;11.590;2023-10-09T08:46:56;96131.34;;;22.20;76.59
17373;BME280;8803;48.116;11.590;2023-10-09T08:49:01;96141.61;;;22.24;75.98
17373;BME280;8803;48.116;11.590;2023-10-09T08:51:07;96142.51;;;22.31;76.81
17373;BME280;8803;48.116;11.590;2023-10-09T08:53:13;96140.02;;;22.36;76.52
17373;BME280;8803;48.116;11.590;2023-10-09T08:55:19;96139.13;;;22.40;77.45
17373;BME280;8803;48.116;11.590;2023-10-09T08:59:41;96143.17;;;22.50;77.68
17373;BME280;8803;48.116;11.590;2023-10-09T09:01:46;96147.75;;;22.50;77.06
17373;BME280;8803;48.116;11.590;2023-10-09T09:03:55;96151.41;;;22.53;76.07
17373;BME280;8803;48.116;11.590;2023-10-09T09:06:00;96145.97;;;22.53;74.94
17373;BME280;8803;48.116;11.590;2023-10-09T09:08:12;96143.09;;;22.54;74.26
17373;BME280;8803;48.116;11.590;2023-10-09T09:10:22;96146.73;;;22.57;74.69
17373;BME280;8803;48.116;11.590;2023-10-09T09:12:29;96152.84;;;22.59;74.36
17373;BME280;8803;48.116;11.590;2023-10-09T09:14:38;96154.53;;;22.60;75.21
17373;BME280;8803;48.116;11.590;2023-10-09T09:16:43;96151.31;;;22.61;75.94
17373;BME280;8803;48.116;11.590;2023-10-09T09:18:54;96154.33;;;22.62;76.48
17373;BME280;8803;48.116;11.590;2023-10-09T09:21:18;96147.88;;;22.63;76.01
17373;BME280;8803;48.116;11.590;2023-10-09T09:25:44;96157.00;;;22.72;76.06
17373;BME280;8803;48.116;11.590;2023-10-09T09:27:51;96159.38;;;22.71;74.43
17373;BME280;8803;48.116;11.590;2023-10-09T09:29:57;96157.34;;;22.73;73.97
17373;BME280;8803;48.116;11.590;2023-10-09T09:32:04;96162.98;;;22.78;73.77
17373;BME280;8803;48.116;11.590;2023-10-09T09:34:11;96160.70;;;22.82;74.11
17373;BME280;8803;48.116;11.590;2023-10-09T09:36:20;96163.03;;;22.85;74.10
17373;BME280;8803;48.116;11.590;2023-10-09T09:38:27;96163.79;;;22.90;73.79
17373;BME280;8803;48.116;11.590;2023-10-09T09:40:32;96159.12;;;22.94;73.66
17373;BME280;8803;48.116;11.590;2023-10-09T09:42:40;96161.23;;;22.99;73.78
17373;BME280;8803;48.116;11.590;2023-10-09T09:44:48;96166.58;;;23.03;73.75
17373;BME280;8803;48.116;11.590;2023-10-09T09:46:54;96164.63;;;23.07;73.87
17373;BME280;8803;48.116;11.590;2023-10-09T09:49:01;96163.90;;;23.09;74.24
17373;BME280;8803;48.116;11.590;2023-10-09T09:51:06;96160.45;;;23.11;74.28
17373;BME280;8803;48.116;11.590;2023-10-09T09:53:12;96161.09;;;23.13;74.35
17373;BME280;8803;48.116;11.590;2023-10-09T09:55:19;96162.54;;;23.16;74.54
17373;BME280;8803;48.116;11.590;2023-10-09T09:57:25;96160.16;;;23.17;75.34
17373;BME280;8803;48.116;11.590;2023-10-09T09:59:32;96153.66;;;23.18;75.59
17373;BME280;8803;48.116;11.590;2023-10-09T10:01:39;96158.08;;;23.19;75.64
17373;BME280;8803;48.116;11.590;2023-10-09T10:03:48;96164.78;;;23.23;75.66
17373;BME280;8803;48.116;11.590;2023-10-09T10:08:07;96170.55;;;23.30;75.50
17373;BME280;8803;48.116;11.590;2023-10-09T10:10:39;96172.63;;;23.28;75.41
17373;BME280;8803;48.116;11.590;2023-10-09T10:12:53;96169.88;;;23.32;75.53
17373;BME280;8803;48.116;11.590;2023-10-09T10:15:06;96154.94;;;23.32;75.44
17373;BME280;8803;48.116;11.590;2023-10-09T10:17:12;96165.89;;;23.35;75.45
17373;BME280;8803;48.116;11.590;2023-10-09T10:19:20;96158.07;;;23.36;74.23
17373;BME280;8803;48.116;11.590;2023-10-09T10:21:29;96162.27;;;23.38;73.49
17373;BME280;8803;48.116;11.590;2023-10-09T10:23:44;96163.53;;;23.42;73.34
17373;BME280;8803;48.116;11.590;2023-10-09T10:25:50;96160.61;;;23.44;70.40
17373;BME280;8803;48.116;11.590;2023-10-09T10:28:21;96162.38;;;23.47;69.19
17373;BME280;8803;48.116;11.590;2023-10-09T10:30:34;96161.14;;;23.50;67.43
17373;BME280;8803;48.116;11.590;2023-10-09T10:32:55;96159.56;;;23.51;65.28
17373;BME280;8803;48.116;11.590;2023-10-09T10:35:00;96160.20;;;23.53;63.67
17373;BME280;8803;48.116;11.590;2023-10-09T10:37:06;96161.50;;;23.58;63.17
17373;BME280;8803;48.116;11.590;2023-10-09T10:39:11;96155.96;;;23.62;64.68
17373;BME280;8803;48.116;11.590;2023-10-09T10:41:20;96155.53;;;23.65;63.47
17373;BME280;8803;48.116;11.590;2023-10-09T10:43:25;96146.47;;;23.68;62.99
17373;BME280;8803;48.116;11.590;2023-10-09T10:47:52;96144.58;;;23.75;60.11
17373;BME280;8803;48.116;11.590;2023-10-09T10:50:01;96144.16;;;23.72;57.36
17373;BME280;8803;48.116;11.590;2023-10-09T10:52:22;96144.16;;;23.72;57.36
17373;BME280;8803;48.116;11.590;2023-10-09T10:54:28;96142.80;;;23.72;56.41
17373;BME280;8803;48.116;11.590;2023-10-09T10:56:49;96139.25;;;23.78;56.40
17373;BME280;8803;48.116;11.590;2023-10-09T10:58:55;96139.25;;;23.78;56.40
17373;BME280;8803;48.116;11.590;2023-10-09T11:01:15;96141.75;;;23.79;55.35
17373;BME280;8803;48.116;11.590;2023-10-09T11:03:20;96140.30;;;23.83;55.75
17373;BME280;8803;48.116;11.590;2023-10-09T11:05:30;96140.30;;;23.83;55.75
17373;BME280;8803;48.116;11.590;2023-10-09T11:07:36;96140.52;;;23.88;59.82
17373;BME280;8803;48.116;11.590;2023-10-09T11:09:48;96140.52;;;23.88;59.82
17373;BME280;8803;48.116;11.590;2023-10-09T11:12:08;96144.48;;;23.86;56.04
17373;BME280;8803;48.116;11.590;2023-10-09T11:14:17;96131.41;;;23.85;54.01
17373;BME280;8803;48.116;11.590;2023-10-09T11:16:24;96137.91;;;23.91;54.88
17373;BME280;8803;48.116;11.590;2023-10-09T11:20:52;96134.47;;;23.93;54.04
17373;BME280;8803;48.116;11.590;2023-10-09T11:23:02;96135.59;;;23.88;52.39
17373;BME280;8803;48.116;11.590;2023-10-09T11:27:32;96126.09;;;23.94;51.45
17373;BME280;8803;48.116;11.590;2023-10-09T11:29:48;96125.56;;;23.88;48.85
17373;BME280;8803;48.116;11.590;2023-10-09T11:32:05;96123.06;;;23.93;49.93
17373;BME280;8803;48.116;11.590;2023-10-09T11:34:20;96124.84;;;23.97;49.02
17373;BME280;8803;48.116;11.590;2023-10-09T11:36:28;96116.91;;;24.02;49.09
17373;BME280;8803;48.116;11.590;2023-10-09T11:38:38;96118.92;;;24.04;48.52
17373;BME280;8803;48.116;11.590;2023-10-09T11:40:44;96118.45;;;24.00;45.80
17373;BME280;8803;48.116;11.590;2023-10-09T11:42:52;96120.91;;;24.06;46.32
17373;BME280;8803;48.116;11.590;2023-10-09T11:44:58;96109.48;;;24.13;46.17
17373;BME280;8803;48.116;11.590;2023-10-09T11:47:05;96097.86;;;24.08;45.78
17373;BME280;8803;48.116;11.590;2023-10-09T11:49:27;96105.62;;;24.18;45.22
17373;BME280;8803;48.116;11.590;2023-10-09T11:51:39;96105.62;;;24.18;45.22
17373;BME280;8803;48.116;11.590;2023-10-09T11:55:59;96101.42;;;24.22;43.84
17373;BME280;8803;48.116;11.590;2023-10-09T11:58:04;96100.69;;;24.11;42.52
17373;BME280;8803;48.116;11.590;2023-10-09T12:00:14;96104.66;;;24.15;42.61
17373;BME280;8803;48.116;11.590;2023-10-09T12:02:21;96103.19;;;23.99;41.96
17373;BME280;8803;48.116;11.590;2023-10-09T12:04:25;96110.10;;;24.08;42.63
17373;BME280;8803;48.116;11.590;2023-10-09T12:06:31;96105.95;;;24.06;42.50
17373;BME280;8803;48.116;11.590;2023-10-09T12:08:38;96111.86;;;23.99;41.25
17373;BME280;8803;48.116;11.590;2023-10-09T12:10:44;96102.22;;;23.83;40.57
17373;BME280;8803;48.116;11.590;2023-10-09T12:12:50;96104.95;;;24.03;41.36
17373;BME280;8803;48.116;11.590;2023-10-09T12:14:55;96091.57;;;24.01;41.17
17373;BME280;8803;48.116;11.590;2023-10-09T12:17:02;96096.69;;;24.00;41.21
17373;BME280;8803;48.116;11.590;2023-10-09T12:19:08;96101.61;;;24.01;40.65
17373;BME280;8803;48.116;11.590;2023-10-09T12:21:12;96104.77;;;24.04;40.49
17373;BME280;8803;48.116;11.590;2023-10-09T12:23:19;96107.15;;;23.90;40.23
17373;BME280;8803;48.116;11.590;2023-10-09T12:25:25;96105.16;;;23.82;40.20
17373;BME280;8803;48.116;11.590;2023-10-09T12:27:31;96103.28;;;23.89;40.30
17373;BME280;8803;48.116;11.590;2023-10-09T12:29:36;96102.85;;;23.92;39.71
17373;BME280;8803;48.116;11.590;2023-10-09T12:31:40;96094.70;;;23.98;41.07
17373;BME280;8803;48.116;11.590;2023-10-09T12:33:46;96099.22;;;24.02;40.87
17373;BME280;8803;48.116;11.590;2023-10-09T12:35:53;96097.33;;;23.89;40.44
17373;BME280;8803;48.116;11.590;2023-10-09T12:37:59;96100.13;;;23.98;40.92
17373;BME280;8803;48.116;11.590;2023-10-09T12:40:07;96092.82;;;23.99;40.92
17373;BME280;8803;48.116;11.590;2023-10-09T12:42:13;96102.23;;;23.96;40.95
17373;BME280;8803;48.116;11.590;2023-10-09T12:44:19;96100.98;;;23.92;41.11
17373;BME280;8803;48.116;11.590;2023-10-09T12:46:24;96109.57;;;23.89;41.16
17373;BME280;8803;48.116;11.590;2023-10-09T12:48:28;96108.29;;;23.92;44.05
17373;BME280;8803;48.116;11.590;2023-10-09T12:50:36;96108.72;;;23.82;41.55
17373;BME280;8803;48.116;11.590;2023-10-09T12:52:44;96113.52;;;23.74;41.07